createdAt,value
2023-05-10T00:00:33.464Z,9.93
2023-05-10T00:05:47.473Z,14.35
2023-05-10T00:10:50.666Z,11.43
2023-05-10T00:15:53.358Z,16.15
2023-05-10T00:20:56.027Z,17.17
2023-05-10T00:25:58.816Z,13.27
2023-05-10T00:31:01.412Z,11.07
2023-05-10T00:36:08.665Z,13.25
2023-05-10T00:41:11.189Z,12.00
2023-05-10T00:46:16.761Z,11.50
2023-05-10T00:51:22.004Z,16.77
2023-05-10T00:56:25.895Z,10.30
2023-05-10T01:01:30.026Z,10.48
2023-05-10T01:06:33.572Z,10.40
2023-05-10T01:11:38.167Z,11.18
2023-05-10T01:16:41.988Z,10.80
2023-05-10T01:22:04.686Z,12.20
2023-05-10T01:27:32.601Z,12.00
2023-05-10T01:32:56.543Z,11.95
2023-05-10T01:43:09.719Z,14.18
2023-05-10T01:48:15.416Z,9.75
2023-05-10T01:53:20.120Z,16.08
2023-05-10T01:58:29.188Z,13.15
2023-05-10T02:03:33.671Z,10.48
2023-05-10T02:08:37.817Z,11.95
2023-05-10T02:13:41.383Z,12.30
2023-05-10T02:18:45.288Z,11.98
2023-05-10T02:28:52.092Z,14.25
2023-05-10T02:33:58.483Z,15.98
2023-05-10T02:39:03.188Z,12.88
2023-05-10T02:44:09.085Z,17.85
2023-05-10T02:49:11.964Z,14.82
2023-05-10T02:54:20.709Z,14.80
2023-05-10T02:59:23.300Z,15.52
2023-05-10T03:04:26.130Z,12.97
2023-05-10T03:09:32.332Z,13.68
2023-05-10T03:14:47.059Z,12.18
2023-05-10T03:20:12.980Z,17.20
2023-05-10T03:25:18.020Z,16.13
2023-05-10T03:30:21.308Z,12.07
2023-05-10T03:35:24.856Z,13.83
2023-05-10T03:40:33.209Z,12.02
2023-05-10T03:45:36.291Z,15.55
2023-05-10T03:50:39.126Z,13.13
2023-05-10T03:55:41.733Z,14.95
2023-05-10T04:00:47.614Z,16.00
2023-05-10T04:06:04.443Z,13.13
2023-05-10T04:11:13.105Z,13.82
2023-05-10T04:16:15.785Z,18.30
2023-05-10T04:21:18.461Z,14.13
2023-05-10T04:26:21.425Z,13.43
2023-05-10T04:31:24.007Z,13.20
2023-05-10T04:36:27.317Z,11.43
2023-05-10T04:41:29.937Z,11.73
2023-05-10T04:46:32.554Z,13.25
2023-05-10T04:51:37.240Z,14.03
2023-05-10T04:56:39.838Z,12.73
2023-05-10T05:01:42.473Z,13.93
2023-05-10T05:06:45.089Z,9.60
2023-05-10T05:11:47.719Z,14.10
2023-05-10T05:16:50.575Z,9.83
2023-05-10T05:21:53.235Z,9.30
2023-05-10T05:26:55.797Z,10.00
2023-05-10T05:31:58.416Z,15.20
2023-05-10T05:37:00.961Z,12.77
2023-05-10T05:42:04.034Z,11.07
2023-05-10T05:47:06.899Z,11.23
2023-05-10T05:52:09.481Z,7.88
2023-05-10T05:57:12.194Z,10.60
2023-05-10T06:02:14.821Z,9.60
2023-05-10T06:07:17.919Z,8.23
2023-05-10T06:12:20.842Z,9.52
2023-05-10T06:17:23.515Z,9.82
2023-05-10T06:22:26.370Z,12.75
2023-05-10T06:27:28.927Z,9.82
2023-05-10T06:32:34.089Z,8.35
2023-05-10T06:37:36.836Z,8.18
2023-05-10T06:42:46.652Z,8.10
2023-05-10T06:47:49.667Z,6.82
2023-05-10T06:52:53.150Z,6.80
2023-05-10T06:57:56.553Z,10.07
2023-05-10T07:03:02.246Z,11.90
2023-05-10T07:08:05.017Z,8.50
2023-05-10T07:13:09.967Z,6.60
2023-05-10T07:18:15.219Z,12.18
2023-05-10T07:23:27.286Z,8.35
2023-05-10T07:28:30.153Z,7.18
2023-05-10T07:33:33.569Z,7.05
2023-05-10T07:38:38.955Z,6.88
2023-05-10T07:43:49.364Z,7.07
2023-05-10T07:48:53.432Z,9.57
2023-05-10T07:59:01.548Z,18.90
2023-05-10T08:04:04.785Z,7.13
2023-05-10T08:14:11.621Z,6.37
2023-05-10T08:19:20.355Z,6.80
2023-05-10T08:24:26.070Z,8.10
2023-05-10T08:29:32.757Z,9.43
2023-05-10T08:34:38.831Z,6.32
2023-05-10T08:39:45.732Z,5.82
2023-05-10T08:44:49.884Z,5.53
2023-05-10T08:50:00.395Z,6.53
2023-05-10T08:55:04.475Z,17.40
2023-05-10T09:00:13.410Z,8.50
2023-05-10T09:05:20.413Z,9.43
2023-05-10T09:10:27.198Z,6.65
2023-05-10T09:15:30.033Z,20.38
2023-05-10T09:20:32.949Z,5.95
2023-05-10T09:30:38.846Z,5.45
2023-05-10T09:40:55.749Z,9.95
2023-05-10T09:45:58.496Z,5.93
2023-05-10T09:51:02.404Z,7.03
2023-05-10T09:56:07.338Z,4.65
2023-05-10T10:01:16.420Z,13.00
2023-05-10T10:06:30.153Z,5.90
2023-05-10T10:11:41.743Z,6.72
2023-05-10T10:16:55.686Z,5.93
2023-05-10T10:22:07.542Z,5.90
2023-05-10T10:27:23.260Z,3.75
2023-05-10T10:33:10.180Z,8.30
2023-05-10T10:38:19.702Z,4.70
2023-05-10T10:48:29.398Z,5.15
2023-05-10T10:58:35.518Z,5.28
2023-05-10T11:03:38.618Z,8.23
2023-05-10T11:08:47.499Z,3.67
2023-05-10T11:13:53.813Z,4.22
2023-05-10T11:19:06.592Z,4.18
2023-05-10T11:24:15.628Z,6.63
2023-05-10T11:29:18.980Z,9.55
2023-05-10T11:34:26.787Z,7.88
2023-05-10T11:39:33.024Z,4.13
2023-05-10T11:44:37.346Z,5.22
2023-05-10T11:49:40.099Z,7.18
2023-05-10T11:54:55.134Z,8.82
2023-05-10T11:59:59.467Z,9.82
2023-05-10T12:05:09.495Z,4.75
2023-05-10T12:10:16.469Z,3.55
2023-05-10T12:15:24.287Z,4.03
2023-05-10T12:20:29.289Z,10.15
2023-05-10T12:25:36.363Z,6.78
2023-05-10T12:30:42.405Z,5.05
2023-05-10T12:35:47.210Z,6.75
2023-05-10T12:40:50.376Z,4.80
2023-05-10T12:45:55.998Z,5.93
2023-05-10T12:50:58.826Z,7.95
2023-05-10T13:01:04.380Z,6.65
2023-05-10T13:06:07.733Z,4.15
2023-05-10T13:11:11.663Z,7.55
2023-05-10T13:16:14.444Z,5.43
2023-05-10T13:21:17.931Z,22.13
2023-05-10T13:26:21.740Z,24.60
2023-05-10T13:31:25.754Z,7.65
2023-05-10T13:36:28.567Z,7.68
2023-05-10T13:41:31.473Z,6.90
2023-05-10T13:46:34.510Z,4.35
2023-05-10T13:51:38.454Z,9.63
2023-05-10T13:56:43.756Z,7.03
2023-05-10T14:01:46.520Z,3.25
2023-05-10T14:06:52.279Z,3.55
2023-05-10T14:11:55.177Z,5.18
2023-05-10T14:22:00.615Z,7.35
2023-05-10T14:32:09.187Z,3.10
2023-05-10T14:37:12.859Z,4.43
2023-05-10T14:42:15.492Z,4.45
2023-05-10T14:47:18.146Z,5.28
2023-05-10T14:52:22.099Z,4.50
2023-05-10T14:57:25.091Z,6.85
2023-05-10T15:07:33.511Z,8.00
2023-05-10T15:12:36.131Z,3.75
2023-05-10T15:17:38.747Z,3.90
2023-05-10T15:22:42.803Z,3.10
2023-05-10T15:27:46.743Z,4.90
2023-05-10T15:32:49.629Z,3.05
2023-05-10T15:42:55.457Z,6.05
2023-05-10T15:48:00.417Z,4.45
2023-05-10T15:53:03.347Z,5.38
2023-05-10T15:58:06.437Z,4.20
2023-05-10T16:03:09.447Z,3.75
2023-05-10T16:13:16.451Z,5.00
2023-05-10T16:18:19.788Z,5.22
2023-05-10T16:23:23.028Z,3.92
2023-05-10T16:28:25.899Z,6.55
2023-05-10T16:33:28.680Z,2.70
2023-05-10T16:38:31.903Z,4.97
2023-05-10T16:43:34.804Z,3.20
2023-05-10T16:48:37.696Z,3.28
2023-05-10T16:58:43.460Z,5.20
2023-05-10T17:03:49.914Z,3.70
2023-05-10T17:08:52.721Z,2.80
2023-05-10T17:13:56.406Z,4.35
2023-05-10T17:18:59.124Z,4.05
2023-05-10T17:24:01.802Z,3.47
2023-05-10T17:29:04.354Z,4.28
2023-05-10T17:34:07.018Z,2.60
2023-05-10T17:39:09.669Z,5.40
2023-05-10T17:44:13.669Z,5.25
2023-05-10T17:49:16.533Z,4.70
2023-05-10T17:54:20.933Z,5.15
2023-05-10T17:59:25.613Z,3.75
2023-05-10T18:04:28.641Z,5.22
2023-05-10T18:14:40.506Z,3.67
2023-05-10T18:19:44.423Z,3.88
2023-05-10T18:24:47.413Z,3.83
2023-05-10T18:34:54.996Z,7.20
2023-05-10T18:40:01.229Z,11.68
2023-05-10T18:45:04.477Z,9.40
2023-05-10T18:50:08.111Z,5.15
2023-05-10T18:55:11.010Z,12.45
2023-05-10T19:00:13.906Z,6.15
2023-05-10T19:05:20.025Z,3.60
2023-05-10T19:10:23.813Z,4.57
2023-05-10T19:15:28.996Z,4.53
2023-05-10T19:20:34.101Z,4.57
2023-05-10T19:25:37.153Z,6.65
2023-05-10T19:30:39.996Z,8.18
2023-05-10T19:35:43.736Z,6.65
2023-05-10T19:40:47.911Z,6.60
2023-05-10T19:45:50.920Z,7.90
2023-05-10T19:50:53.996Z,7.35
2023-05-10T19:55:56.651Z,5.28
2023-05-10T20:01:00.683Z,8.52
2023-05-10T20:06:04.247Z,21.73
2023-05-10T20:11:06.860Z,16.42
2023-05-10T20:16:09.545Z,13.65
2023-05-10T20:21:12.093Z,11.00
2023-05-10T20:26:15.207Z,8.30
2023-05-10T20:31:17.695Z,8.57
2023-05-10T20:36:20.501Z,5.72
2023-05-10T20:41:23.555Z,7.68
2023-05-10T20:46:27.334Z,8.30
2023-05-10T20:51:30.678Z,11.25
2023-05-10T21:01:36.915Z,13.68
2023-05-10T21:06:42.065Z,10.73
2023-05-10T21:11:44.735Z,13.95
2023-05-10T21:16:48.556Z,13.80
2023-05-10T21:21:51.453Z,10.35
2023-05-10T21:26:54.427Z,11.30
2023-05-10T21:31:57.120Z,16.15
2023-05-10T21:37:01.264Z,11.05
2023-05-10T21:42:06.456Z,15.38
2023-05-10T21:47:10.559Z,13.55
2023-05-10T21:52:13.356Z,12.07
2023-05-10T21:57:16.404Z,13.47
2023-05-10T22:02:19.202Z,11.93
2023-05-10T22:07:21.866Z,11.43
2023-05-10T22:12:24.449Z,10.47
2023-05-10T22:17:27.083Z,14.80
2023-05-10T22:22:30.685Z,12.87
2023-05-10T22:27:33.197Z,12.82
2023-05-10T22:32:35.734Z,13.10
2023-05-10T22:37:38.294Z,13.97
2023-05-10T22:42:41.138Z,15.57
2023-05-10T22:47:44.043Z,12.38
2023-05-10T22:52:46.879Z,15.33
2023-05-10T22:57:49.523Z,15.47
2023-05-10T23:02:52.412Z,13.47
2023-05-10T23:07:58.779Z,12.32
2023-05-10T23:13:01.431Z,11.48
2023-05-10T23:18:06.141Z,14.73
2023-05-10T23:23:10.200Z,14.32
2023-05-10T23:28:13.212Z,13.85
2023-05-10T23:33:15.868Z,13.85
2023-05-10T23:38:21.805Z,13.03
2023-05-10T23:43:26.609Z,11.52
2023-05-10T23:48:29.132Z,11.25
2023-05-10T23:53:31.744Z,16.40
2023-05-10T23:58:34.094Z,10.02
